sensor_id;sensor_type;location;lat;lon;timestamp;P1;durP1;ratioP1;P2;durP2;ratioP2
25758;SDS011;13604;52.496;13.456;2023-05-07T00:00:32;24.40;;;16.05;;
25758;SDS011;13604;52.496;13.456;2023-05-07T00:02:58;23.65;;;15.85;;
25758;SDS011;13604;52.496;13.456;2023-05-07T00:05:24;21.08;;;15.38;;
25758;SDS011;13604;52.496;13.456;2023-05-07T00:07:49;26.92;;;15.88;;
25758;SDS011;13604;52.496;13.456;2023-05-07T00:10:15;21.60;;;15.32;;
25758;SDS011;13604;52.496;13.456;2023-05-07T00:12:40;24.73;;;15.57;;
25758;SDS011;13604;52.496;13.456;2023-05-07T00:15:06;26.17;;;15.68;;
25758;SDS011;13604;52.496;13.456;2023-05-07T00:17:33;23.63;;;15.50;;
25758;SDS011;13604;52.496;13.456;2023-05-07T00:19:58;26.38;;;15.38;;
25758;SDS011;13604;52.496;13.456;2023-05-07T00:22:24;18.50;;;13.20;;
25758;SDS011;13604;52.496;13.456;2023-05-07T00:24:49;24.63;;;14.00;;
25758;SDS011;13604;52.496;13.456;2023-05-07T00:27:14;19.27;;;13.45;;
25758;SDS011;13604;52.496;13.456;2023-05-07T00:29:40;18.42;;;13.45;;
25758;SDS011;13604;52.496;13.456;2023-05-07T00:32:05;19.20;;;13.88;;
25758;SDS011;13604;52.496;13.456;2023-05-07T00:34:30;19.73;;;13.88;;
25758;SDS011;13604;52.496;13.456;2023-05-07T00:36:56;20.25;;;14.07;;
25758;SDS011;13604;52.496;13.456;2023-05-07T00:39:21;22.90;;;14.80;;
25758;SDS011;13604;52.496;13.456;2023-05-07T00:41:46;25.95;;;14.45;;
25758;SDS011;13604;52.496;13.456;2023-05-07T00:44:12;22.88;;;15.02;;
25758;SDS011;13604;52.496;13.456;2023-05-07T00:46:37;21.15;;;14.73;;
25758;SDS011;13604;52.496;13.456;2023-05-07T00:49:02;22.63;;;14.75;;
25758;SDS011;13604;52.496;13.456;2023-05-07T00:51:28;23.27;;;15.85;;
25758;SDS011;13604;52.496;13.456;2023-05-07T00:53:55;21.77;;;14.70;;
25758;SDS011;13604;52.496;13.456;2023-05-07T00:56:21;21.60;;;14.27;;
25758;SDS011;13604;52.496;13.456;2023-05-07T00:58:47;23.55;;;15.13;;
25758;SDS011;13604;52.496;13.456;2023-05-07T01:01:12;25.42;;;15.35;;
25758;SDS011;13604;52.496;13.456;2023-05-07T01:03:38;22.33;;;14.20;;
25758;SDS011;13604;52.496;13.456;2023-05-07T01:06:03;24.90;;;15.30;;
25758;SDS011;13604;52.496;13.456;2023-05-07T01:08:31;23.88;;;14.70;;
25758;SDS011;13604;52.496;13.456;2023-05-07T01:10:57;20.30;;;14.40;;
25758;SDS011;13604;52.496;13.456;2023-05-07T01:13:24;22.80;;;15.65;;
25758;SDS011;13604;52.496;13.456;2023-05-07T01:15:50;20.15;;;14.38;;
25758;SDS011;13604;52.496;13.456;2023-05-07T01:18:15;19.23;;;14.65;;
25758;SDS011;13604;52.496;13.456;2023-05-07T01:20:41;20.88;;;16.08;;
25758;SDS011;13604;52.496;13.456;2023-05-07T01:23:06;20.48;;;14.75;;
25758;SDS011;13604;52.496;13.456;2023-05-07T01:25:32;26.33;;;15.55;;
25758;SDS011;13604;52.496;13.456;2023-05-07T01:27:57;22.48;;;15.02;;
25758;SDS011;13604;52.496;13.456;2023-05-07T01:30:24;21.02;;;14.02;;
25758;SDS011;13604;52.496;13.456;2023-05-07T01:32:51;22.05;;;14.68;;
25758;SDS011;13604;52.496;13.456;2023-05-07T01:35:19;21.13;;;15.30;;
25758;SDS011;13604;52.496;13.456;2023-05-07T01:37:47;20.70;;;13.88;;
25758;SDS011;13604;52.496;13.456;2023-05-07T01:40:13;19.60;;;13.27;;
25758;SDS011;13604;52.496;13.456;2023-05-07T01:42:39;19.20;;;14.13;;
25758;SDS011;13604;52.496;13.456;2023-05-07T01:45:05;22.80;;;13.90;;
25758;SDS011;13604;52.496;13.456;2023-05-07T01:47:31;17.48;;;12.77;;
25758;SDS011;13604;52.496;13.456;2023-05-07T01:49:57;17.92;;;13.30;;
25758;SDS011;13604;52.496;13.456;2023-05-07T01:52:23;17.50;;;12.52;;
25758;SDS011;13604;52.496;13.456;2023-05-07T01:54:49;17.20;;;12.98;;
25758;SDS011;13604;52.496;13.456;2023-05-07T01:57:15;18.88;;;12.65;;
25758;SDS011;13604;52.496;13.456;2023-05-07T01:59:40;21.30;;;13.73;;
25758;SDS011;13604;52.496;13.456;2023-05-07T02:02:05;21.83;;;14.07;;
25758;SDS011;13604;52.496;13.456;2023-05-07T02:04:31;15.63;;;11.75;;
25758;SDS011;13604;52.496;13.456;2023-05-07T02:06:56;22.67;;;13.05;;
25758;SDS011;13604;52.496;13.456;2023-05-07T02:09:21;20.23;;;13.60;;
25758;SDS011;13604;52.496;13.456;2023-05-07T02:11:48;23.65;;;14.10;;
25758;SDS011;13604;52.496;13.456;2023-05-07T02:14:13;21.85;;;13.63;;
25758;SDS011;13604;52.496;13.456;2023-05-07T02:16:38;20.92;;;14.35;;
25758;SDS011;13604;52.496;13.456;2023-05-07T02:19:04;23.23;;;13.57;;
25758;SDS011;13604;52.496;13.456;2023-05-07T02:21:29;20.17;;;13.55;;
25758;SDS011;13604;52.496;13.456;2023-05-07T02:23:54;21.92;;;13.80;;
25758;SDS011;13604;52.496;13.456;2023-05-07T02:26:20;17.75;;;12.85;;
25758;SDS011;13604;52.496;13.456;2023-05-07T02:28:46;22.58;;;14.27;;
25758;SDS011;13604;52.496;13.456;2023-05-07T02:31:12;21.05;;;14.18;;
25758;SDS011;13604;52.496;13.456;2023-05-07T02:33:37;18.80;;;13.63;;
25758;SDS011;13604;52.496;13.456;2023-05-07T02:36:06;18.90;;;13.85;;
25758;SDS011;13604;52.496;13.456;2023-05-07T02:38:32;20.98;;;13.98;;
25758;SDS011;13604;52.496;13.456;2023-05-07T02:40:58;25.38;;;14.18;;
25758;SDS011;13604;52.496;13.456;2023-05-07T02:43:23;24.15;;;14.02;;
25758;SDS011;13604;52.496;13.456;2023-05-07T02:45:49;19.88;;;13.65;;
25758;SDS011;13604;52.496;13.456;2023-05-07T02:48:14;18.80;;;12.85;;
25758;SDS011;13604;52.496;13.456;2023-05-07T02:50:39;18.65;;;12.82;;
25758;SDS011;13604;52.496;13.456;2023-05-07T02:53:04;18.13;;;12.95;;
25758;SDS011;13604;52.496;13.456;2023-05-07T02:55:30;20.58;;;13.40;;
25758;SDS011;13604;52.496;13.456;2023-05-07T02:57:56;20.45;;;12.68;;
25758;SDS011;13604;52.496;13.456;2023-05-07T03:00:21;23.23;;;14.30;;
25758;SDS011;13604;52.496;13.456;2023-05-07T03:02:47;20.08;;;13.07;;
25758;SDS011;13604;52.496;13.456;2023-05-07T03:05:12;17.67;;;12.40;;
25758;SDS011;13604;52.496;13.456;2023-05-07T03:07:39;24.33;;;14.07;;
25758;SDS011;13604;52.496;13.456;2023-05-07T03:10:04;19.10;;;12.25;;
25758;SDS011;13604;52.496;13.456;2023-05-07T03:12:30;19.35;;;12.80;;
25758;SDS011;13604;52.496;13.456;2023-05-07T03:14:56;16.52;;;12.27;;
25758;SDS011;13604;52.496;13.456;2023-05-07T03:17:21;16.17;;;11.73;;
25758;SDS011;13604;52.496;13.456;2023-05-07T03:19:46;15.88;;;11.27;;
25758;SDS011;13604;52.496;13.456;2023-05-07T03:22:12;17.50;;;13.07;;
25758;SDS011;13604;52.496;13.456;2023-05-07T03:24:37;18.50;;;12.48;;
25758;SDS011;13604;52.496;13.456;2023-05-07T03:27:02;21.20;;;13.63;;
25758;SDS011;13604;52.496;13.456;2023-05-07T03:29:28;17.80;;;12.45;;
25758;SDS011;13604;52.496;13.456;2023-05-07T03:31:53;19.45;;;12.20;;
25758;SDS011;13604;52.496;13.456;2023-05-07T03:34:18;16.52;;;12.80;;
25758;SDS011;13604;52.496;13.456;2023-05-07T03:36:47;18.88;;;12.65;;
25758;SDS011;13604;52.496;13.456;2023-05-07T03:39:13;19.58;;;14.05;;
25758;SDS011;13604;52.496;13.456;2023-05-07T03:41:38;22.33;;;13.98;;
25758;SDS011;13604;52.496;13.456;2023-05-07T03:44:04;20.35;;;13.77;;
25758;SDS011;13604;52.496;13.456;2023-05-07T03:46:29;20.27;;;13.90;;
25758;SDS011;13604;52.496;13.456;2023-05-07T03:48:54;22.30;;;14.18;;
25758;SDS011;13604;52.496;13.456;2023-05-07T03:51:20;20.00;;;14.23;;
25758;SDS011;13604;52.496;13.456;2023-05-07T03:53:45;19.33;;;14.65;;
25758;SDS011;13604;52.496;13.456;2023-05-07T03:56:10;22.85;;;14.75;;
25758;SDS011;13604;52.496;13.456;2023-05-07T03:58:35;20.52;;;14.00;;
25758;SDS011;13604;52.496;13.456;2023-05-07T04:01:01;23.13;;;12.85;;
25758;SDS011;13604;52.496;13.456;2023-05-07T04:03:27;19.70;;;13.38;;
25758;SDS011;13604;52.496;13.456;2023-05-07T04:05:52;20.65;;;12.75;;
25758;SDS011;13604;52.496;13.456;2023-05-07T04:08:17;20.55;;;13.35;;
25758;SDS011;13604;52.496;13.456;2023-05-07T04:10:42;23.02;;;12.48;;
25758;SDS011;13604;52.496;13.456;2023-05-07T04:13:08;16.10;;;12.20;;
25758;SDS011;13604;52.496;13.456;2023-05-07T04:15:33;20.08;;;13.02;;
25758;SDS011;13604;52.496;13.456;2023-05-07T04:17:58;19.17;;;12.60;;
25758;SDS011;13604;52.496;13.456;2023-05-07T04:20:24;17.75;;;11.55;;
25758;SDS011;13604;52.496;13.456;2023-05-07T04:22:49;14.18;;;11.10;;
25758;SDS011;13604;52.496;13.456;2023-05-07T04:25:15;17.50;;;11.93;;
25758;SDS011;13604;52.496;13.456;2023-05-07T04:27:41;17.65;;;12.10;;
25758;SDS011;13604;52.496;13.456;2023-05-07T04:30:06;18.17;;;12.23;;
25758;SDS011;13604;52.496;13.456;2023-05-07T04:32:32;15.80;;;11.00;;
25758;SDS011;13604;52.496;13.456;2023-05-07T04:34:57;15.65;;;10.60;;
25758;SDS011;13604;52.496;13.456;2023-05-07T04:37:23;15.80;;;10.25;;
25758;SDS011;13604;52.496;13.456;2023-05-07T04:39:48;16.55;;;10.73;;
25758;SDS011;13604;52.496;13.456;2023-05-07T04:42:17;15.40;;;10.57;;
25758;SDS011;13604;52.496;13.456;2023-05-07T04:44:45;15.77;;;10.20;;
25758;SDS011;13604;52.496;13.456;2023-05-07T04:47:11;16.05;;;10.32;;
25758;SDS011;13604;52.496;13.456;2023-05-07T04:49:37;16.35;;;10.52;;
25758;SDS011;13604;52.496;13.456;2023-05-07T04:52:03;13.20;;;9.65;;
25758;SDS011;13604;52.496;13.456;2023-05-07T04:54:28;12.80;;;9.07;;
25758;SDS011;13604;52.496;13.456;2023-05-07T04:56:53;13.18;;;9.43;;
25758;SDS011;13604;52.496;13.456;2023-05-07T04:59:19;12.52;;;9.70;;
25758;SDS011;13604;52.496;13.456;2023-05-07T05:01:44;13.90;;;9.60;;
25758;SDS011;13604;52.496;13.456;2023-05-07T05:04:10;12.82;;;8.57;;
25758;SDS011;13604;52.496;13.456;2023-05-07T05:06:35;12.25;;;8.48;;
25758;SDS011;13604;52.496;13.456;2023-05-07T05:09:00;11.63;;;8.10;;
25758;SDS011;13604;52.496;13.456;2023-05-07T05:11:25;13.75;;;8.63;;
25758;SDS011;13604;52.496;13.456;2023-05-07T05:13:51;10.30;;;7.38;;
25758;SDS011;13604;52.496;13.456;2023-05-07T05:16:16;13.10;;;7.15;;
25758;SDS011;13604;52.496;13.456;2023-05-07T05:18:41;10.73;;;7.32;;
25758;SDS011;13604;52.496;13.456;2023-05-07T05:21:07;15.18;;;8.15;;
25758;SDS011;13604;52.496;13.456;2023-05-07T05:23:32;12.77;;;7.93;;
25758;SDS011;13604;52.496;13.456;2023-05-07T05:25:57;12.10;;;8.15;;
25758;SDS011;13604;52.496;13.456;2023-05-07T05:28:23;11.13;;;7.93;;
25758;SDS011;13604;52.496;13.456;2023-05-07T05:30:49;10.73;;;8.05;;
25758;SDS011;13604;52.496;13.456;2023-05-07T05:33:14;15.35;;;8.43;;
25758;SDS011;13604;52.496;13.456;2023-05-07T05:35:40;12.25;;;8.13;;
25758;SDS011;13604;52.496;13.456;2023-05-07T05:38:05;12.45;;;8.38;;
25758;SDS011;13604;52.496;13.456;2023-05-07T05:40:31;10.23;;;8.23;;
25758;SDS011;13604;52.496;13.456;2023-05-07T05:42:56;9.93;;;8.38;;
25758;SDS011;13604;52.496;13.456;2023-05-07T05:45:22;13.98;;;8.63;;
25758;SDS011;13604;52.496;13.456;2023-05-07T05:47:47;12.20;;;9.05;;
25758;SDS011;13604;52.496;13.456;2023-05-07T05:50:12;11.32;;;8.32;;
25758;SDS011;13604;52.496;13.456;2023-05-07T05:52:38;12.63;;;8.75;;
25758;SDS011;13604;52.496;13.456;2023-05-07T05:55:03;12.23;;;7.90;;
25758;SDS011;13604;52.496;13.456;2023-05-07T05:57:29;15.52;;;8.60;;
25758;SDS011;13604;52.496;13.456;2023-05-07T05:59:54;12.48;;;8.63;;
25758;SDS011;13604;52.496;13.456;2023-05-07T06:02:19;15.43;;;8.55;;
25758;SDS011;13604;52.496;13.456;2023-05-07T06:04:45;12.68;;;8.63;;
25758;SDS011;13604;52.496;13.456;2023-05-07T06:07:10;12.80;;;8.15;;
25758;SDS011;13604;52.496;13.456;2023-05-07T06:09:36;13.48;;;8.50;;
25758;SDS011;13604;52.496;13.456;2023-05-07T06:12:01;14.77;;;8.57;;
25758;SDS011;13604;52.496;13.456;2023-05-07T06:14:26;12.55;;;8.82;;
25758;SDS011;13604;52.496;13.456;2023-05-07T06:16:52;11.07;;;7.85;;
25758;SDS011;13604;52.496;13.456;2023-05-07T06:19:17;17.83;;;9.13;;
25758;SDS011;13604;52.496;13.456;2023-05-07T06:21:47;10.57;;;8.27;;
25758;SDS011;13604;52.496;13.456;2023-05-07T06:24:13;14.10;;;8.23;;
25758;SDS011;13604;52.496;13.456;2023-05-07T06:26:38;12.18;;;8.32;;
25758;SDS011;13604;52.496;13.456;2023-05-07T06:29:03;16.50;;;8.30;;
25758;SDS011;13604;52.496;13.456;2023-05-07T06:31:29;14.95;;;7.82;;
25758;SDS011;13604;52.496;13.456;2023-05-07T06:33:56;11.27;;;7.72;;
25758;SDS011;13604;52.496;13.456;2023-05-07T06:36:22;9.73;;;6.78;;
25758;SDS011;13604;52.496;13.456;2023-05-07T06:38:47;12.68;;;7.68;;
25758;SDS011;13604;52.496;13.456;2023-05-07T06:41:12;16.98;;;7.53;;
25758;SDS011;13604;52.496;13.456;2023-05-07T06:43:38;8.68;;;7.03;;
25758;SDS011;13604;52.496;13.456;2023-05-07T06:46:03;11.27;;;7.45;;
25758;SDS011;13604;52.496;13.456;2023-05-07T06:48:28;11.35;;;7.13;;
25758;SDS011;13604;52.496;13.456;2023-05-07T06:50:54;8.70;;;7.18;;
25758;SDS011;13604;52.496;13.456;2023-05-07T06:53:20;13.50;;;7.20;;
25758;SDS011;13604;52.496;13.456;2023-05-07T06:55:46;10.60;;;7.63;;
25758;SDS011;13604;52.496;13.456;2023-05-07T06:58:11;8.25;;;6.80;;
25758;SDS011;13604;52.496;13.456;2023-05-07T07:00:36;8.73;;;6.72;;
25758;SDS011;13604;52.496;13.456;2023-05-07T07:03:01;10.13;;;7.10;;
25758;SDS011;13604;52.496;13.456;2023-05-07T07:05:27;10.23;;;6.40;;
25758;SDS011;13604;52.496;13.456;2023-05-07T07:07:52;8.48;;;6.00;;
25758;SDS011;13604;52.496;13.456;2023-05-07T07:10:21;8.02;;;5.88;;
25758;SDS011;13604;52.496;13.456;2023-05-07T07:12:48;9.85;;;5.68;;
25758;SDS011;13604;52.496;13.456;2023-05-07T07:15:14;10.05;;;5.82;;
25758;SDS011;13604;52.496;13.456;2023-05-07T07:17:39;8.23;;;6.07;;
25758;SDS011;13604;52.496;13.456;2023-05-07T07:20:05;11.52;;;6.65;;
25758;SDS011;13604;52.496;13.456;2023-05-07T07:22:31;9.32;;;6.07;;
25758;SDS011;13604;52.496;13.456;2023-05-07T07:24:56;10.52;;;5.50;;
25758;SDS011;13604;52.496;13.456;2023-05-07T07:27:21;11.07;;;5.93;;
25758;SDS011;13604;52.496;13.456;2023-05-07T07:29:47;5.90;;;4.90;;
25758;SDS011;13604;52.496;13.456;2023-05-07T07:32:12;8.65;;;4.60;;
25758;SDS011;13604;52.496;13.456;2023-05-07T07:34:37;6.18;;;4.75;;
25758;SDS011;13604;52.496;13.456;2023-05-07T07:37:03;6.70;;;4.93;;
25758;SDS011;13604;52.496;13.456;2023-05-07T07:39:31;10.57;;;5.15;;
25758;SDS011;13604;52.496;13.456;2023-05-07T07:41:57;5.95;;;4.75;;
25758;SDS011;13604;52.496;13.456;2023-05-07T07:44:22;8.57;;;4.53;;
25758;SDS011;13604;52.496;13.456;2023-05-07T07:46:47;7.53;;;4.85;;
25758;SDS011;13604;52.496;13.456;2023-05-07T07:49:13;7.55;;;4.90;;
25758;SDS011;13604;52.496;13.456;2023-05-07T07:51:38;5.22;;;3.97;;
25758;SDS011;13604;52.496;13.456;2023-05-07T07:54:03;5.68;;;4.35;;
25758;SDS011;13604;52.496;13.456;2023-05-07T07:56:29;5.07;;;4.00;;
25758;SDS011;13604;52.496;13.456;2023-05-07T07:58:54;5.03;;;4.20;;
25758;SDS011;13604;52.496;13.456;2023-05-07T08:01:19;4.95;;;4.00;;
25758;SDS011;13604;52.496;13.456;2023-05-07T08:03:45;6.80;;;4.38;;
25758;SDS011;13604;52.496;13.456;2023-05-07T08:06:10;7.25;;;4.35;;
25758;SDS011;13604;52.496;13.456;2023-05-07T08:08:36;4.95;;;3.95;;
25758;SDS011;13604;52.496;13.456;2023-05-07T08:11:01;6.38;;;3.92;;
25758;SDS011;13604;52.496;13.456;2023-05-07T08:13:26;6.00;;;4.13;;
25758;SDS011;13604;52.496;13.456;2023-05-07T08:15:52;4.75;;;3.42;;
25758;SDS011;13604;52.496;13.456;2023-05-07T08:18:17;4.03;;;3.40;;
25758;SDS011;13604;52.496;13.456;2023-05-07T08:20:42;4.18;;;3.72;;
25758;SDS011;13604;52.496;13.456;2023-05-07T08:23:08;4.50;;;3.33;;
25758;SDS011;13604;52.496;13.456;2023-05-07T08:25:33;5.55;;;3.30;;
25758;SDS011;13604;52.496;13.456;2023-05-07T08:27:59;8.00;;;3.45;;
25758;SDS011;13604;52.496;13.456;2023-05-07T08:30:25;5.25;;;3.38;;
25758;SDS011;13604;52.496;13.456;2023-05-07T08:32:50;4.43;;;3.38;;
25758;SDS011;13604;52.496;13.456;2023-05-07T08:35:15;4.03;;;3.55;;
25758;SDS011;13604;52.496;13.456;2023-05-07T08:37:40;6.25;;;3.63;;
25758;SDS011;13604;52.496;13.456;2023-05-07T08:40:06;5.43;;;2.80;;
25758;SDS011;13604;52.496;13.456;2023-05-07T08:42:35;6.70;;;3.35;;
25758;SDS011;13604;52.496;13.456;2023-05-07T08:45:02;3.40;;;2.85;;
25758;SDS011;13604;52.496;13.456;2023-05-07T08:47:38;3.88;;;3.00;;
25758;SDS011;13604;52.496;13.456;2023-05-07T08:50:07;4.28;;;2.80;;
25758;SDS011;13604;52.496;13.456;2023-05-07T08:52:32;3.70;;;2.60;;
25758;SDS011;13604;52.496;13.456;2023-05-07T08:54:58;4.95;;;3.00;;
25758;SDS011;13604;52.496;13.456;2023-05-07T08:57:24;4.13;;;2.72;;
25758;SDS011;13604;52.496;13.456;2023-05-07T08:59:49;6.03;;;3.40;;
25758;SDS011;13604;52.496;13.456;2023-05-07T09:02:15;3.88;;;2.50;;
25758;SDS011;13604;52.496;13.456;2023-05-07T09:04:41;4.40;;;2.80;;
25758;SDS011;13604;52.496;13.456;2023-05-07T09:07:06;2.85;;;2.53;;
25758;SDS011;13604;52.496;13.456;2023-05-07T09:09:32;3.72;;;2.78;;
25758;SDS011;13604;52.496;13.456;2023-05-07T09:11:58;7.65;;;3.17;;
25758;SDS011;13604;52.496;13.456;2023-05-07T09:14:24;3.28;;;2.72;;
25758;SDS011;13604;52.496;13.456;2023-05-07T09:16:51;4.72;;;2.80;;
25758;SDS011;13604;52.496;13.456;2023-05-07T09:19:21;7.95;;;3.10;;
25758;SDS011;13604;52.496;13.456;2023-05-07T09:21:47;3.13;;;2.70;;
25758;SDS011;13604;52.496;13.456;2023-05-07T09:24:14;3.90;;;2.90;;
25758;SDS011;13604;52.496;13.456;2023-05-07T09:26:40;3.83;;;3.00;;
25758;SDS011;13604;52.496;13.456;2023-05-07T09:29:06;4.70;;;3.45;;
25758;SDS011;13604;52.496;13.456;2023-05-07T09:31:35;5.70;;;2.95;;
25758;SDS011;13604;52.496;13.456;2023-05-07T09:34:01;5.30;;;2.88;;
25758;SDS011;13604;52.496;13.456;2023-05-07T09:36:27;5.82;;;3.28;;
25758;SDS011;13604;52.496;13.456;2023-05-07T09:38:52;4.93;;;2.90;;
25758;SDS011;13604;52.496;13.456;2023-05-07T09:41:17;5.03;;;2.75;;
25758;SDS011;13604;52.496;13.456;2023-05-07T09:43:43;3.30;;;3.00;;
25758;SDS011;13604;52.496;13.456;2023-05-07T09:46:12;3.33;;;2.70;;
25758;SDS011;13604;52.496;13.456;2023-05-07T09:48:40;3.95;;;2.80;;
25758;SDS011;13604;52.496;13.456;2023-05-07T09:51:18;10.15;;;3.10;;
25758;SDS011;13604;52.496;13.456;2023-05-07T09:53:46;2.60;;;2.40;;
25758;SDS011;13604;52.496;13.456;2023-05-07T09:56:12;3.58;;;2.05;;
25758;SDS011;13604;52.496;13.456;2023-05-07T09:58:39;5.03;;;2.58;;
25758;SDS011;13604;52.496;13.456;2023-05-07T10:01:06;5.10;;;2.58;;
25758;SDS011;13604;52.496;13.456;2023-05-07T10:03:32;2.97;;;2.20;;
25758;SDS011;13604;52.496;13.456;2023-05-07T10:05:59;2.83;;;2.03;;
25758;SDS011;13604;52.496;13.456;2023-05-07T10:08:25;3.88;;;2.25;;
25758;SDS011;13604;52.496;13.456;2023-05-07T10:10:51;2.17;;;1.70;;
25758;SDS011;13604;52.496;13.456;2023-05-07T10:13:17;2.10;;;1.90;;
25758;SDS011;13604;52.496;13.456;2023-05-07T10:15:44;4.90;;;2.00;;
25758;SDS011;13604;52.496;13.456;2023-05-07T10:18:09;2.88;;;2.38;;
25758;SDS011;13604;52.496;13.456;2023-05-07T10:20:36;2.17;;;1.80;;
25758;SDS011;13604;52.496;13.456;2023-05-07T10:23:04;2.25;;;1.67;;
25758;SDS011;13604;52.496;13.456;2023-05-07T10:25:30;2.63;;;1.80;;
25758;SDS011;13604;52.496;13.456;2023-05-07T10:28:00;3.03;;;1.60;;
25758;SDS011;13604;52.496;13.456;2023-05-07T10:33:30;2.95;;;1.98;;
25758;SDS011;13604;52.496;13.456;2023-05-07T10:35:59;2.42;;;1.85;;
25758;SDS011;13604;52.496;13.456;2023-05-07T10:38:26;1.77;;;1.67;;
25758;SDS011;13604;52.496;13.456;2023-05-07T10:40:52;3.10;;;1.85;;
25758;SDS011;13604;52.496;13.456;2023-05-07T10:43:18;2.30;;;1.90;;
25758;SDS011;13604;52.496;13.456;2023-05-07T10:45:44;4.60;;;1.80;;
25758;SDS011;13604;52.496;13.456;2023-05-07T10:49:06;2.38;;;1.60;;
25758;SDS011;13604;52.496;13.456;2023-05-07T10:51:32;2.00;;;1.65;;
25758;SDS011;13604;52.496;13.456;2023-05-07T10:56:35;3.10;;;1.33;;
25758;SDS011;13604;52.496;13.456;2023-05-07T11:01:55;1.90;;;1.50;;
25758;SDS011;13604;52.496;13.456;2023-05-07T11:04:27;1.83;;;1.70;;
25758;SDS011;13604;52.496;13.456;2023-05-07T11:15:04;2.55;;;1.70;;
25758;SDS011;13604;52.496;13.456;2023-05-07T11:17:31;1.70;;;1.35;;
25758;SDS011;13604;52.496;13.456;2023-05-07T11:19:59;2.60;;;1.63;;
25758;SDS011;13604;52.496;13.456;2023-05-07T11:24:59;4.63;;;1.90;;
25758;SDS011;13604;52.496;13.456;2023-05-07T11:27:25;3.70;;;1.75;;
25758;SDS011;13604;52.496;13.456;2023-05-07T11:29:51;4.10;;;1.95;;
25758;SDS011;13604;52.496;13.456;2023-05-07T11:32:22;3.85;;;1.77;;
25758;SDS011;13604;52.496;13.456;2023-05-07T11:34:51;3.15;;;1.63;;
25758;SDS011;13604;52.496;13.456;2023-05-07T11:37:17;5.63;;;2.22;;
25758;SDS011;13604;52.496;13.456;2023-05-07T11:39:43;3.45;;;2.00;;
25758;SDS011;13604;52.496;13.456;2023-05-07T11:42:25;1.83;;;1.67;;
25758;SDS011;13604;52.496;13.456;2023-05-07T11:44:53;2.80;;;1.95;;
25758;SDS011;13604;52.496;13.456;2023-05-07T11:47:19;2.28;;;1.75;;
25758;SDS011;13604;52.496;13.456;2023-05-07T11:49:49;2.17;;;1.90;;
25758;SDS011;13604;52.496;13.456;2023-05-07T11:52:16;2.55;;;1.48;;
25758;SDS011;13604;52.496;13.456;2023-05-07T11:54:48;3.00;;;1.70;;
25758;SDS011;13604;52.496;13.456;2023-05-07T11:57:14;5.13;;;1.88;;
25758;SDS011;13604;52.496;13.456;2023-05-07T11:59:40;7.10;;;1.80;;
25758;SDS011;13604;52.496;13.456;2023-05-07T12:02:06;2.10;;;1.40;;
25758;SDS011;13604;52.496;13.456;2023-05-07T12:04:33;1.88;;;1.50;;
25758;SDS011;13604;52.496;13.456;2023-05-07T12:06:58;2.45;;;2.00;;
25758;SDS011;13604;52.496;13.456;2023-05-07T12:09:23;4.35;;;1.88;;
25758;SDS011;13604;52.496;13.456;2023-05-07T12:11:48;5.22;;;1.38;;
25758;SDS011;13604;52.496;13.456;2023-05-07T12:14:14;1.45;;;1.33;;
25758;SDS011;13604;52.496;13.456;2023-05-07T12:16:41;4.35;;;1.42;;
25758;SDS011;13604;52.496;13.456;2023-05-07T12:19:06;1.77;;;1.52;;
25758;SDS011;13604;52.496;13.456;2023-05-07T12:21:33;1.40;;;1.30;;
25758;SDS011;13604;52.496;13.456;2023-05-07T12:24:00;2.90;;;1.55;;
25758;SDS011;13604;52.496;13.456;2023-05-07T12:26:26;2.85;;;1.70;;
25758;SDS011;13604;52.496;13.456;2023-05-07T12:28:51;3.55;;;1.77;;
25758;SDS011;13604;52.496;13.456;2023-05-07T12:31:16;2.58;;;1.50;;
25758;SDS011;13604;52.496;13.456;2023-05-07T12:33:42;2.80;;;1.58;;
25758;SDS011;13604;52.496;13.456;2023-05-07T12:36:07;1.67;;;1.58;;
25758;SDS011;13604;52.496;13.456;2023-05-07T12:38:39;1.80;;;1.60;;
25758;SDS011;13604;52.496;13.456;2023-05-07T12:41:09;4.57;;;1.58;;
25758;SDS011;13604;52.496;13.456;2023-05-07T12:43:35;3.22;;;1.50;;
25758;SDS011;13604;52.496;13.456;2023-05-07T12:46:03;1.77;;;1.33;;
25758;SDS011;13604;52.496;13.456;2023-05-07T12:48:30;1.90;;;1.33;;
25758;SDS011;13604;52.496;13.456;2023-05-07T12:50:56;2.22;;;1.38;;
25758;SDS011;13604;52.496;13.456;2023-05-07T12:53:23;2.90;;;1.50;;
25758;SDS011;13604;52.496;13.456;2023-05-07T12:55:50;1.85;;;1.20;;
25758;SDS011;13604;52.496;13.456;2023-05-07T12:58:19;4.10;;;1.40;;
25758;SDS011;13604;52.496;13.456;2023-05-07T13:00:55;1.70;;;1.30;;
25758;SDS011;13604;52.496;13.456;2023-05-07T13:03:24;1.42;;;1.00;;
25758;SDS011;13604;52.496;13.456;2023-05-07T13:05:52;2.38;;;1.13;;
25758;SDS011;13604;52.496;13.456;2023-05-07T13:08:28;2.58;;;1.20;;
25758;SDS011;13604;52.496;13.456;2023-05-07T13:10:55;1.23;;;1.13;;
25758;SDS011;13604;52.496;13.456;2023-05-07T13:13:21;3.53;;;1.48;;
25758;SDS011;13604;52.496;13.456;2023-05-07T13:15:47;3.63;;;1.50;;
25758;SDS011;13604;52.496;13.456;2023-05-07T13:18:12;4.00;;;1.42;;
25758;SDS011;13604;52.496;13.456;2023-05-07T13:20:38;5.03;;;2.00;;
25758;SDS011;13604;52.496;13.456;2023-05-07T13:23:03;5.35;;;1.58;;
25758;SDS011;13604;52.496;13.456;2023-05-07T13:25:29;2.88;;;1.30;;
25758;SDS011;13604;52.496;13.456;2023-05-07T13:27:56;3.78;;;1.30;;
25758;SDS011;13604;52.496;13.456;2023-05-07T13:30:22;2.63;;;1.50;;
25758;SDS011;13604;52.496;13.456;2023-05-07T13:32:47;2.65;;;1.55;;
25758;SDS011;13604;52.496;13.456;2023-05-07T13:35:12;1.75;;;1.30;;
25758;SDS011;13604;52.496;13.456;2023-05-07T13:37:38;3.55;;;1.63;;
25758;SDS011;13604;52.496;13.456;2023-05-07T13:40:03;2.35;;;1.40;;
25758;SDS011;13604;52.496;13.456;2023-05-07T13:42:29;5.90;;;1.60;;
25758;SDS011;13604;52.496;13.456;2023-05-07T13:44:55;4.53;;;1.42;;
25758;SDS011;13604;52.496;13.456;2023-05-07T13:47:21;2.63;;;1.58;;
25758;SDS011;13604;52.496;13.456;2023-05-07T13:49:46;1.45;;;1.30;;
25758;SDS011;13604;52.496;13.456;2023-05-07T13:52:14;3.40;;;1.27;;
25758;SDS011;13604;52.496;13.456;2023-05-07T13:54:39;4.78;;;1.40;;
25758;SDS011;13604;52.496;13.456;2023-05-07T13:57:05;3.28;;;1.48;;
25758;SDS011;13604;52.496;13.456;2023-05-07T13:59:30;3.72;;;1.40;;
25758;SDS011;13604;52.496;13.456;2023-05-07T14:01:55;1.75;;;1.35;;
25758;SDS011;13604;52.496;13.456;2023-05-07T14:04:21;4.07;;;2.10;;
25758;SDS011;13604;52.496;13.456;2023-05-07T14:06:46;2.38;;;1.60;;
25758;SDS011;13604;52.496;13.456;2023-05-07T14:09:12;5.57;;;1.40;;
25758;SDS011;13604;52.496;13.456;2023-05-07T14:11:38;4.40;;;1.42;;
25758;SDS011;13604;52.496;13.456;2023-05-07T14:14:03;2.97;;;1.83;;
25758;SDS011;13604;52.496;13.456;2023-05-07T14:16:28;3.33;;;1.77;;
25758;SDS011;13604;52.496;13.456;2023-05-07T14:18:54;4.60;;;1.50;;
25758;SDS011;13604;52.496;13.456;2023-05-07T14:21:19;3.75;;;1.40;;
25758;SDS011;13604;52.496;13.456;2023-05-07T14:23:44;3.25;;;1.50;;
25758;SDS011;13604;52.496;13.456;2023-05-07T14:26:10;1.73;;;1.50;;
25758;SDS011;13604;52.496;13.456;2023-05-07T14:28:35;1.80;;;1.10;;
25758;SDS011;13604;52.496;13.456;2023-05-07T14:31:00;2.33;;;1.50;;
25758;SDS011;13604;52.496;13.456;2023-05-07T14:33:26;2.53;;;1.50;;
25758;SDS011;13604;52.496;13.456;2023-05-07T14:35:51;1.63;;;1.30;;